ACRAWX current weather conditions

sailwx.info

Wind from 116 at 4 knots gusting 8

Air temperature 29.7° C
Dewpoint 20.0° C
Water temperature -7999.0° C

Last reported at 2019-Oct-15 17:40 UTC.
Time now 2019-Oct-15 18:39 UTC

Location: N 27°07' W 080°26'.
View on Google Maps.

See reports from other nearby stations

  
Tides and Currents Weather Stations Pressure Air Temp Water Temp Dewpoint Dewpoint Depression Visibility Wind Speed Wind Dir Waves Ship Positions
date/time (UTC)wind fromknots sea level pressurealtimeterstation pressurevisibilityair tempwater tempwave heightnotes
2019-Oct-15 17:40 116 4 gusting 8 29.7-7999.0
2019-Oct-15 17:15 116 4 gusting 8 29.7-7999.0
2019-Oct-15 17:00 112 5 gusting 10 28.5-7999.0
2019-Oct-15 16:45 095 5 gusting 10 28.9-7999.0
2019-Oct-15 16:38 103 5 gusting 10 28.9-7999.0
2019-Oct-15 16:30 103 5 gusting 10 28.9-7999.0
2019-Oct-15 12:44 026 1 gusting 2 20.3-7999.0
2019-Oct-15 12:30 026 1 gusting 2 20.3-7999.0
2019-Oct-15 12:15 013 2 gusting 3 19.3-7999.0
2019-Oct-15 12:00 030 2 gusting 2 17.8-7999.0
2019-Oct-15 11:45 027 2 gusting 2 17.3-7999.0
2019-Oct-15 11:30 016 2 gusting 2 17.3-7999.0
2019-Oct-15 11:15 311 2 gusting 2 17.5-7999.0
2019-Oct-15 11:00 338 1 gusting 2 17.5-7999.0
2019-Oct-15 10:45 327 1 gusting 2 17.6-7999.0
2019-Oct-15 10:30 323 1 gusting 2 17.4-7999.0
2019-Oct-15 10:15 323 2 gusting 2 17.2-7999.0
2019-Oct-15 10:00 338 1 gusting 2 17.5-7999.0
2019-Oct-15 09:45 036 1 gusting 1 17.6-7999.0
2019-Oct-15 09:30 168 2 gusting 2 17.6-7999.0
2019-Oct-15 09:15 340 1 gusting 2 17.7-7999.0
2019-Oct-15 09:00 337 1 gusting 2 17.9-7999.0
2019-Oct-15 08:45 316 3 gusting 3 18.1-7999.0
2019-Oct-15 08:30 311 3 gusting 4 18.2-7999.0
2019-Oct-15 08:15 302 2 gusting 3 18.1-7999.0
2019-Oct-15 08:00 304 2 gusting 2 18.0-7999.0
2019-Oct-15 07:45 327 2 gusting 2 18.3-7999.0
2019-Oct-15 07:30 324 2 gusting 3 18.2-7999.0
2019-Oct-15 07:15 324 1 gusting 2 18.0-7999.0
2019-Oct-15 07:00 234 1 gusting 1 18.3-7999.0
2019-Oct-15 06:45 001 1 gusting 1 18.4-7999.0
2019-Oct-15 06:30 026 0 gusting 1 18.5-7999.0
2019-Oct-15 06:15 286 18.7-7999.0
2019-Oct-15 06:00 332 0 gusting 1 18.6-7999.0
2019-Oct-15 05:45 309 0 gusting 1 18.7-7999.0
2019-Oct-15 05:30 061 0 gusting 1 19.1-7999.0
2019-Oct-15 05:15 051 1 gusting 1 19.2-7999.0
2019-Oct-15 05:00 055 0 gusting 1 19.2-7999.0
2019-Oct-15 04:45 161 0 gusting 0 19.5-7999.0
2019-Oct-15 04:30 161 0 gusting 1 19.9-7999.0
2019-Oct-15 04:15 149 0 gusting 1 20.2-7999.0
2019-Oct-15 04:00 081 20.1-7999.0
2019-Oct-15 03:45 072 0 gusting 0 20.1-7999.0
2019-Oct-15 03:30 066 1 gusting 1 20.2-7999.0
2019-Oct-15 03:15 082 1 gusting 1 20.5-7999.0
2019-Oct-15 03:00 057 1 gusting 2 20.9-7999.0
2019-Oct-15 02:45 075 2 gusting 2 21.4-7999.0
2019-Oct-15 02:30 092 2 gusting 2 21.6-7999.0
2019-Oct-15 02:15 086 2 gusting 2 21.9-7999.0
2019-Oct-15 02:00 092 2 gusting 2 21.9-7999.0
2019-Oct-15 01:45 080 2 gusting 3 22.1-7999.0
2019-Oct-15 01:30 078 3 gusting 4 22.4-7999.0
2019-Oct-15 01:15 085 3 gusting 3 22.5-7999.0
2019-Oct-15 01:00 083 3 gusting 3 22.8-7999.0
2019-Oct-15 00:45 099 3 gusting 3 23.1-7999.0
2019-Oct-15 00:30 090 4 gusting 4 23.3-7999.0
2019-Oct-15 00:15 087 3 gusting 4 23.6-7999.0
2019-Oct-15 00:00 086 3 gusting 4 23.8-7999.0
2019-Oct-14 23:45 082 3 gusting 4 24.3-7999.0
2019-Oct-14 23:30 084 4 gusting 6 24.4-7999.0
2019-Oct-14 23:15 083 4 gusting 5 24.5-7999.0
2019-Oct-14 23:00 087 4 gusting 6 24.8-7999.0
2019-Oct-14 22:45 084 5 gusting 8 25.1-7999.0
2019-Oct-14 22:30 084 5 gusting 8 25.6-7999.0
2019-Oct-14 22:15 083 6 gusting 8 25.9-7999.0
2019-Oct-14 22:00 081 6 gusting 10 26.1-7999.0
2019-Oct-14 21:45 084 7 gusting 10 26.4-7999.0
2019-Oct-14 21:30 076 7 gusting 10 27.1-7999.0
2019-Oct-14 21:15 082 7 gusting 11 28.1-7999.0
2019-Oct-14 21:00 078 7 gusting 11 28.2-7999.0
2019-Oct-14 20:45 072 8 gusting 12 28.9-7999.0
2019-Oct-14 20:30 075 8 gusting 11 29.2-7999.0
2019-Oct-14 20:15 086 6 gusting 10 29.4-7999.0
2019-Oct-14 20:00 076 7 gusting 11 29.6-7999.0
2019-Oct-14 19:45 078 7 gusting 11 29.7-7999.0
2019-Oct-14 19:30 083 7 gusting 11 29.9-7999.0
2019-Oct-14 19:15 089 4 gusting 7 28.8-7999.0
2019-Oct-14 19:00 084 5 gusting 8 28.6-7999.0
2019-Oct-14 18:45 083 6 gusting 8 28.2-7999.0
2019-Oct-14 18:30 073 5 gusting 9 28.0-7999.0
2019-Oct-14 18:15 066 5 gusting 8 29.9-7999.0
2019-Oct-14 18:00 091 6 gusting 9 30.3-7999.0
2019-Oct-14 17:45 092 6 gusting 9 30.2-7999.0
2019-Oct-14 17:30 081 5 gusting 9 29.1-7999.0
2019-Oct-14 17:15 093 5 gusting 8 28.3-7999.0
2019-Oct-14 17:00 059 2 gusting 5 28.7-7999.0
2019-Oct-14 16:45 054 4 gusting 7 29.0-7999.0
2019-Oct-14 16:30 122 2 gusting 5 30.7-7999.0
2019-Oct-14 16:15 090 2 gusting 5 30.0-7999.0
2019-Oct-14 16:00 082 3 gusting 6 30.1-7999.0
2019-Oct-14 15:45 080 4 gusting 6 29.4-7999.0
2019-Oct-14 15:30 108 2 gusting 7 29.4-7999.0
2019-Oct-14 15:15 111 3 gusting 6 29.5-7999.0
2019-Oct-14 15:00 093 2 gusting 5 29.1-7999.0
2019-Oct-14 14:45 095 2 gusting 8 28.1-7999.0
2019-Oct-14 14:30 080 3 gusting 4 27.8-7999.0
2019-Oct-14 14:15 063 3 gusting 6 27.9-7999.0
2019-Oct-14 14:00 080 3 gusting 5 27.7-7999.0
2019-Oct-14 13:45 085 3 gusting 4 27.6-7999.0
2019-Oct-14 13:30 076 3 gusting 5 27.2-7999.0
2019-Oct-14 13:15 077 2 gusting 3 26.5-7999.0
2019-Oct-14 13:00 051 1 gusting 2 25.0-7999.0
2019-Oct-14 12:45 052 0 gusting 1 23.7-7999.0
2019-Oct-14 12:30 034 1 gusting 1 22.9-7999.0
2019-Oct-14 12:15 031 1 gusting 2 22.0-7999.0
2019-Oct-14 12:00 029 2 gusting 2 21.0-7999.0
2019-Oct-14 11:45 342 2 gusting 3 20.6-7999.0
2019-Oct-14 11:30 343 2 gusting 3 20.3-7999.0
2019-Oct-14 11:15 305 2 gusting 3 20.5-7999.0
2019-Oct-14 11:00 015 2 gusting 2 20.8-7999.0
2019-Oct-14 10:45 021 2 gusting 2 21.0-7999.0
2019-Oct-14 10:30 242 1 gusting 2 21.2-7999.0
2019-Oct-14 10:15 343 2 gusting 3 21.4-7999.0
2019-Oct-14 10:00 322 3 gusting 4 21.6-7999.0
2019-Oct-14 09:45 315 3 gusting 4 21.9-7999.0
2019-Oct-14 09:30 313 2 gusting 3 22.2-7999.0
2019-Oct-14 09:15 312 2 gusting 3 22.4-7999.0
2019-Oct-14 09:00 329 1 gusting 2 22.5-7999.0
2019-Oct-14 08:45 341 1 gusting 1 22.5-7999.0
2019-Oct-14 08:30 260 1 gusting 1 22.6-7999.0
2019-Oct-14 08:15 041 2 gusting 2 22.5-7999.0
2019-Oct-14 08:00 051 2 gusting 2 22.4-7999.0
2019-Oct-14 07:45 051 2 gusting 2 22.2-7999.0
2019-Oct-14 07:30 038 2 gusting 2 22.1-7999.0
2019-Oct-14 07:15 015 3 gusting 3 22.2-7999.0
2019-Oct-14 07:00 033 2 gusting 2 22.4-7999.0
2019-Oct-14 06:45 047 1 gusting 2 22.2-7999.0
2019-Oct-14 06:30 017 2 gusting 2 22.1-7999.0
2019-Oct-14 06:15 297 2 gusting 2 22.1-7999.0
2019-Oct-14 06:00 049 2 gusting 2 22.1-7999.0
2019-Oct-14 05:30 341 1 gusting 2 22.1-7999.0
2019-Oct-14 05:15 118 2 gusting 2 22.3-7999.0
2019-Oct-14 05:00 191 2 gusting 3 22.2-7999.0
2019-Oct-14 04:45 280 1 gusting 2 22.1-7999.0
2019-Oct-14 04:30 333 1 gusting 2 22.1-7999.0
2019-Oct-14 04:15 337 1 gusting 2 22.1-7999.0
2019-Oct-14 04:00 329 1 gusting 1 22.0-7999.0
2019-Oct-14 03:45 292 1 gusting 2 21.9-7999.0
2019-Oct-14 03:30 280 2 gusting 3 21.6-7999.0
2019-Oct-14 03:15 299 2 gusting 3 21.3-7999.0
2019-Oct-14 03:00 266 0 gusting 2 21.3-7999.0
2019-Oct-14 02:45 092 1 gusting 2 21.9-7999.0
2019-Oct-14 02:30 092 2 gusting 2 22.4-7999.0
2019-Oct-14 02:15 087 3 gusting 4 22.5-7999.0
2019-Oct-14 02:00 076 3 gusting 4 22.5-7999.0
2019-Oct-14 01:45 065 4 gusting 4 22.8-7999.0
2019-Oct-14 01:30 062 3 gusting 4 23.1-7999.0
2019-Oct-14 01:15 078 4 gusting 4 23.3-7999.0
2019-Oct-14 01:00 082 3 gusting 4 23.5-7999.0
2019-Oct-14 00:45 083 3 gusting 4 23.5-7999.0
2019-Oct-14 00:30 077 3 gusting 4 23.6-7999.0
2019-Oct-14 00:15 072 3 gusting 4 23.8-7999.0
2019-Oct-14 00:00 077 3 gusting 3 24.0-7999.0
2019-Oct-13 23:45 070 3 gusting 3 24.1-7999.0
2019-Oct-13 23:30 076 2 gusting 4 24.2-7999.0
2019-Oct-13 23:15 075 2 gusting 4 24.3-7999.0
2019-Oct-13 23:00 084 3 gusting 4 24.6-7999.0
2019-Oct-13 22:45 083 4 gusting 6 25.1-7999.0
2019-Oct-13 22:30 083 5 gusting 7 25.6-7999.0
2019-Oct-13 22:15 091 6 gusting 10 26.0-7999.0
2019-Oct-13 22:00 085 7 gusting 11 26.6-7999.0
2019-Oct-13 21:45 082 7 gusting 10 27.0-7999.0
2019-Oct-13 21:30 088 7 gusting 11 27.0-7999.0
2019-Oct-13 21:15 098 8 gusting 11 27.2-7999.0
2019-Oct-13 21:00 086 7 gusting 10 27.4-7999.0
2019-Oct-13 20:45 081 7 gusting 9 28.0-7999.0
2019-Oct-13 20:30 071 7 gusting 9 28.0-7999.0
2019-Oct-13 20:15 063 6 gusting 11 27.7-7999.0
2019-Oct-13 20:00 073 7 gusting 10 27.2-7999.0
2019-Oct-13 19:45 075 7 gusting 10 27.2-7999.0
2019-Oct-13 19:30 076 7 gusting 10 27.3-7999.0
2019-Oct-13 19:15 061 8 gusting 10 27.3-7999.0
2019-Oct-13 19:00 059 8 gusting 11 27.4-7999.0
2019-Oct-13 18:45 064 7 gusting 10 27.5-7999.0
2019-Oct-13 18:30 067 8 gusting 12 27.7-7999.0
2019-Oct-13 18:15 069 8 gusting 11 27.3-7999.0
2019-Oct-13 18:00 074 7 gusting 10 27.1-7999.0